TRA2606 LGSA-EHRD
Flight info
| Callsign | TRA2606 |
|---|---|
| Flight time | 3h 20m |
| Altitude | 38000 |
| Route | SOKRI UB1 DDM UM619 YNN UL604 DIMIS DCT ABISO DCT ERKIR DCT BABEG DCT LIRSU DCT SOGRI L608 BUB Y28 HELEN |
| Aircraft | B738/M-SDE2E3FGHIJ1RWXYZ/LB1 |
Departure
| Time | 2026-04-26 20:54 |
|---|---|
| Airport | Chania International Airport (LGSA) |
Arrival
| Time | 2026-04-27 00:14 |
|---|---|
| Airport | Rotterdam The Hague Airport (EHRD) |
| Time | Latitude | Longitude | Altitude | Speed | Heading |
|---|---|---|---|---|---|
| 2026-04-26 20:39 | 35.53914 | 24.13932 | 493 ft | 0 kts | 21° |
| 2026-04-26 20:45 | 35.53913 | 24.13931 | 497 ft | 1 kts | 22° |
| 2026-04-26 20:45 | 35.53897 | 24.13923 | 488 ft | 3 kts | 22° |
| 2026-04-26 20:46 | 35.53879 | 24.13914 | 487 ft | 3 kts | 22° |
| 2026-04-26 20:46 | 35.53860 | 24.13904 | 486 ft | 3 kts | 30° |
| 2026-04-26 20:46 | 35.53845 | 24.13891 | 490 ft | 3 kts | 56° |
| 2026-04-26 20:46 | 35.53839 | 24.13874 | 486 ft | 2 kts | 107° |
| 2026-04-26 20:47 | 35.53843 | 24.13861 | 491 ft | 3 kts | 112° |
| 2026-04-26 20:47 | 35.53847 | 24.13846 | 488 ft | 2 kts | 112° |
| 2026-04-26 20:47 | 35.53849 | 24.13841 | 489 ft | 0 kts | 112° |
| 2026-04-26 20:49 | 35.53847 | 24.13849 | 488 ft | 4 kts | 111° |
| 2026-04-26 20:49 | 35.53823 | 24.13922 | 489 ft | 14 kts | 112° |
| 2026-04-26 20:50 | 35.53780 | 24.14003 | 493 ft | 10 kts | 169° |
| 2026-04-26 20:50 | 35.53712 | 24.13978 | 497 ft | 11 kts | 195° |
| 2026-04-26 20:50 | 35.53658 | 24.14044 | 495 ft | 14 kts | 111° |
| 2026-04-26 20:50 | 35.53613 | 24.14182 | 495 ft | 20 kts | 111° |
| 2026-04-26 20:51 | 35.53554 | 24.14362 | 491 ft | 24 kts | 112° |
| 2026-04-26 20:51 | 35.53492 | 24.14554 | 488 ft | 24 kts | 112° |
| 2026-04-26 20:51 | 35.53433 | 24.14737 | 488 ft | 23 kts | 111° |
| 2026-04-26 20:51 | 35.53374 | 24.14919 | 489 ft | 24 kts | 111° |
| 2026-04-26 20:52 | 35.53304 | 24.15132 | 488 ft | 29 kts | 111° |
| 2026-04-26 20:52 | 35.53227 | 24.15367 | 492 ft | 29 kts | 112° |
| 2026-04-26 20:52 | 35.53154 | 24.15592 | 492 ft | 27 kts | 112° |
| 2026-04-26 20:52 | 35.53085 | 24.15803 | 490 ft | 26 kts | 111° |
| 2026-04-26 20:53 | 35.53034 | 24.15961 | 494 ft | 9 kts | 112° |
| 2026-04-26 20:53 | 35.52977 | 24.15973 | 496 ft | 9 kts | 197° |
| 2026-04-26 20:53 | 35.52916 | 24.15945 | 495 ft | 10 kts | 202° |
| 2026-04-26 20:53 | 35.52872 | 24.15901 | 491 ft | 8 kts | 272° |
| 2026-04-26 20:54 | 35.52891 | 24.15834 | 491 ft | 25 kts | 291° |
| 2026-04-26 20:54 | 35.53062 | 24.15311 | 485 ft | 106 kts | 292° |
| 2026-04-26 20:54 | 35.53421 | 24.14209 | 535 ft | 167 kts | 292° |
| 2026-04-26 20:54 | 35.53857 | 24.12896 | 1418 ft | 161 kts | 290° |
| 2026-04-26 20:55 | 35.54274 | 24.11641 | 2426 ft | 161 kts | 291° |
| 2026-04-26 20:55 | 35.54721 | 24.10278 | 2876 ft | 193 kts | 291° |
| 2026-04-26 20:55 | 35.55269 | 24.08671 | 3345 ft | 211 kts | 301° |
| 2026-04-26 20:55 | 35.56411 | 24.07564 | 3997 ft | 218 kts | 346° |
| 2026-04-26 20:56 | 35.57932 | 24.07557 | 4891 ft | 220 kts | 5° |
| 2026-04-26 20:56 | 35.59459 | 24.07765 | 5788 ft | 222 kts | 6° |
| 2026-04-26 20:56 | 35.61003 | 24.07990 | 6626 ft | 226 kts | 6° |
| 2026-04-26 20:56 | 35.62566 | 24.07905 | 7433 ft | 229 kts | 340° |
| 2026-04-26 20:57 | 35.63990 | 24.06859 | 7866 ft | 254 kts | 324° |
| 2026-04-26 20:57 | 35.65457 | 24.05469 | 8319 ft | 274 kts | 322° |
| 2026-04-26 20:57 | 35.66963 | 24.04002 | 9204 ft | 278 kts | 323° |
| 2026-04-26 20:57 | 35.68484 | 24.02516 | 10122 ft | 281 kts | 323° |
| 2026-04-26 20:58 | 35.70062 | 24.00981 | 10581 ft | 301 kts | 323° |
| 2026-04-26 20:58 | 35.71776 | 23.99322 | 10891 ft | 323 kts | 323° |
| 2026-04-26 20:58 | 35.73560 | 23.97597 | 11636 ft | 328 kts | 324° |
| 2026-04-26 20:58 | 35.75362 | 23.95857 | 12489 ft | 331 kts | 324° |
| 2026-04-26 20:59 | 35.77197 | 23.94088 | 13163 ft | 340 kts | 324° |
| 2026-04-26 20:59 | 35.79068 | 23.92283 | 13982 ft | 342 kts | 323° |
| 2026-04-26 20:59 | 35.80945 | 23.90474 | 14794 ft | 344 kts | 323° |
| 2026-04-26 20:59 | 35.82841 | 23.88645 | 15477 ft | 349 kts | 323° |
| 2026-04-26 21:00 | 35.84772 | 23.86783 | 16134 ft | 354 kts | 323° |
| 2026-04-26 21:00 | 35.86717 | 23.84905 | 16901 ft | 356 kts | 323° |
| 2026-04-26 21:00 | 35.88010 | 23.83656 | 17426 ft | 357 kts | 323° |
| 2026-04-26 21:00 | 35.89974 | 23.81758 | 18152 ft | 360 kts | 323° |
| 2026-04-26 21:01 | 35.91954 | 23.79845 | 18801 ft | 364 kts | 323° |
| 2026-04-26 21:01 | 35.93959 | 23.77905 | 19377 ft | 368 kts | 323° |
| 2026-04-26 21:01 | 35.95982 | 23.75947 | 20024 ft | 370 kts | 323° |
| 2026-04-26 21:01 | 35.98015 | 23.73977 | 20634 ft | 373 kts | 322° |
| 2026-04-26 21:02 | 36.00066 | 23.71991 | 21219 ft | 377 kts | 322° |
| 2026-04-26 21:02 | 36.02142 | 23.69991 | 21803 ft | 380 kts | 323° |
| 2026-04-26 21:02 | 36.04238 | 23.67981 | 22380 ft | 383 kts | 323° |
| 2026-04-26 21:02 | 36.06354 | 23.65951 | 22951 ft | 386 kts | 323° |
| 2026-04-26 21:03 | 36.08486 | 23.63905 | 23518 ft | 390 kts | 322° |
| 2026-04-26 21:03 | 36.10632 | 23.61841 | 24001 ft | 393 kts | 322° |
| 2026-04-26 21:03 | 36.12793 | 23.59760 | 24464 ft | 395 kts | 322° |
| 2026-04-26 21:03 | 36.14943 | 23.57689 | 24915 ft | 398 kts | 322° |
| 2026-04-26 21:04 | 36.17133 | 23.55576 | 25363 ft | 401 kts | 322° |
| 2026-04-26 21:04 | 36.19366 | 23.53421 | 25802 ft | 403 kts | 322° |
| 2026-04-26 21:04 | 36.21559 | 23.51303 | 26229 ft | 406 kts | 322° |
| 2026-04-26 21:04 | 36.23793 | 23.49145 | 26655 ft | 409 kts | 322° |
| 2026-04-26 21:05 | 36.26218 | 23.47300 | 27033 ft | 413 kts | 337° |
| 2026-04-26 21:05 | 36.28998 | 23.46376 | 27456 ft | 416 kts | 348° |
| 2026-04-26 21:05 | 36.31862 | 23.45785 | 27867 ft | 419 kts | 349° |
| 2026-04-26 21:05 | 36.34755 | 23.45235 | 28219 ft | 422 kts | 350° |
| 2026-04-26 21:06 | 36.37668 | 23.44685 | 28577 ft | 425 kts | 349° |
| 2026-04-26 21:06 | 36.40602 | 23.44117 | 28954 ft | 428 kts | 349° |
| 2026-04-26 21:06 | 36.43546 | 23.43531 | 29325 ft | 430 kts | 349° |
| 2026-04-26 21:06 | 36.46511 | 23.42928 | 29679 ft | 433 kts | 349° |
| 2026-04-26 21:07 | 36.49494 | 23.42314 | 29943 ft | 437 kts | 348° |
| 2026-04-26 21:07 | 36.52508 | 23.41690 | 30183 ft | 441 kts | 348° |
| 2026-04-26 21:07 | 36.55544 | 23.41059 | 30479 ft | 443 kts | 348° |
| 2026-04-26 21:07 | 36.58588 | 23.40427 | 30803 ft | 444 kts | 348° |
| 2026-04-26 21:08 | 36.61631 | 23.39795 | 31168 ft | 444 kts | 348° |
| 2026-04-26 21:08 | 36.64673 | 23.39163 | 31572 ft | 442 kts | 348° |
| 2026-04-26 21:08 | 36.67703 | 23.38534 | 31957 ft | 441 kts | 348° |
| 2026-04-26 21:08 | 36.70732 | 23.37904 | 32301 ft | 442 kts | 348° |
| 2026-04-26 21:09 | 36.73766 | 23.37272 | 32651 ft | 441 kts | 348° |
| 2026-04-26 21:09 | 36.76790 | 23.36642 | 33046 ft | 440 kts | 348° |
| 2026-04-26 21:09 | 36.79807 | 23.36013 | 33451 ft | 439 kts | 348° |
| 2026-04-26 21:09 | 36.82820 | 23.35384 | 33782 ft | 439 kts | 348° |
| 2026-04-26 21:10 | 36.85835 | 23.34756 | 34092 ft | 439 kts | 348° |
| 2026-04-26 21:10 | 36.88849 | 23.34128 | 34397 ft | 439 kts | 348° |
| 2026-04-26 21:10 | 36.91854 | 23.33502 | 34723 ft | 437 kts | 348° |
| 2026-04-26 21:10 | 36.94850 | 23.32876 | 35026 ft | 437 kts | 348° |
| 2026-04-26 21:11 | 36.97847 | 23.32250 | 35305 ft | 437 kts | 348° |
| 2026-04-26 21:11 | 37.00843 | 23.31623 | 35593 ft | 436 kts | 348° |
| 2026-04-26 21:11 | 37.03832 | 23.30997 | 35894 ft | 435 kts | 348° |
| 2026-04-26 21:11 | 37.06815 | 23.30372 | 36179 ft | 434 kts | 348° |
| 2026-04-26 21:12 | 37.09791 | 23.29748 | 36443 ft | 434 kts | 348° |
| 2026-04-26 21:12 | 37.12773 | 23.29123 | 36713 ft | 434 kts | 348° |
| 2026-04-26 21:12 | 37.15706 | 23.28526 | 36984 ft | 433 kts | 348° |
| 2026-04-26 21:12 | 37.18722 | 23.27901 | 37191 ft | 434 kts | 348° |
| 2026-04-26 21:13 | 37.21721 | 23.27266 | 37231 ft | 439 kts | 348° |
| 2026-04-26 21:13 | 37.27753 | 23.25975 | 37365 ft | 446 kts | 348° |
| 2026-04-26 21:13 | 37.30824 | 23.25320 | 37513 ft | 448 kts | 348° |
| 2026-04-26 21:14 | 37.33896 | 23.24666 | 37740 ft | 447 kts | 348° |
| 2026-04-26 21:14 | 37.36955 | 23.24015 | 38025 ft | 445 kts | 348° |
| 2026-04-26 21:14 | 37.40020 | 23.23362 | 38067 ft | 448 kts | 348° |
| 2026-04-26 21:15 | 37.46090 | 23.21693 | 38084 ft | 443 kts | 336° |
| 2026-04-26 21:15 | 37.51447 | 23.18057 | 38073 ft | 435 kts | 320° |
| 2026-04-26 21:16 | 37.56087 | 23.13230 | 38081 ft | 432 kts | 318° |
| 2026-04-26 21:16 | 37.60675 | 23.08369 | 38081 ft | 430 kts | 318° |
| 2026-04-26 21:17 | 37.65271 | 23.03533 | 38086 ft | 431 kts | 318° |
| 2026-04-26 21:17 | 37.69889 | 22.98698 | 38099 ft | 432 kts | 318° |
| 2026-04-26 21:18 | 37.74534 | 22.93837 | 38105 ft | 435 kts | 318° |
| 2026-04-26 21:18 | 37.79178 | 22.88970 | 38109 ft | 438 kts | 318° |
| 2026-04-26 21:19 | 37.83877 | 22.84036 | 38107 ft | 440 kts | 318° |
| 2026-04-26 21:19 | 37.88592 | 22.79077 | 38090 ft | 441 kts | 318° |
| 2026-04-26 21:20 | 37.93311 | 22.74105 | 38102 ft | 442 kts | 318° |
| 2026-04-26 21:20 | 37.98033 | 22.69121 | 38102 ft | 442 kts | 318° |
| 2026-04-26 21:21 | 38.02754 | 22.64130 | 38112 ft | 442 kts | 318° |
| 2026-04-26 21:21 | 38.07472 | 22.59132 | 38098 ft | 442 kts | 318° |
| 2026-04-26 21:22 | 38.12182 | 22.54135 | 38105 ft | 441 kts | 318° |
| 2026-04-26 21:22 | 38.16884 | 22.49138 | 38103 ft | 440 kts | 318° |
| 2026-04-26 21:23 | 38.23915 | 22.41648 | 38109 ft | 439 kts | 318° |
| 2026-04-26 21:23 | 38.28594 | 22.36653 | 38123 ft | 439 kts | 318° |
| 2026-04-26 21:24 | 38.33267 | 22.31656 | 38114 ft | 438 kts | 318° |
| 2026-04-26 21:24 | 38.37930 | 22.26661 | 38118 ft | 438 kts | 318° |
| 2026-04-26 21:25 | 38.42591 | 22.21659 | 38119 ft | 438 kts | 318° |
| 2026-04-26 21:25 | 38.47246 | 22.16655 | 38120 ft | 437 kts | 318° |
| 2026-04-26 21:26 | 38.51900 | 22.11643 | 38121 ft | 438 kts | 318° |
| 2026-04-26 21:26 | 38.56551 | 22.06625 | 38131 ft | 438 kts | 317° |
| 2026-04-26 21:27 | 38.61209 | 22.01590 | 38127 ft | 439 kts | 317° |
| 2026-04-26 21:27 | 38.65866 | 21.96549 | 38131 ft | 439 kts | 317° |
| 2026-04-26 21:28 | 38.70528 | 21.91507 | 38124 ft | 438 kts | 318° |
| 2026-04-26 21:28 | 38.75184 | 21.86485 | 38134 ft | 438 kts | 318° |
| 2026-04-26 21:29 | 38.79808 | 21.81487 | 38134 ft | 438 kts | 317° |
| 2026-04-26 21:29 | 38.84460 | 21.76447 | 38134 ft | 438 kts | 317° |
| 2026-04-26 21:30 | 38.89113 | 21.71396 | 38125 ft | 438 kts | 317° |
| 2026-04-26 21:30 | 38.93763 | 21.66337 | 38138 ft | 438 kts | 317° |
| 2026-04-26 21:31 | 38.98414 | 21.61270 | 38135 ft | 439 kts | 317° |
| 2026-04-26 21:31 | 39.03066 | 21.56192 | 38129 ft | 439 kts | 317° |
| 2026-04-26 21:32 | 39.07725 | 21.51097 | 38134 ft | 440 kts | 317° |
| 2026-04-26 21:32 | 39.12385 | 21.45992 | 38137 ft | 440 kts | 317° |
| 2026-04-26 21:33 | 39.17046 | 21.40878 | 38126 ft | 440 kts | 317° |
| 2026-04-26 21:33 | 39.21679 | 21.35784 | 38131 ft | 440 kts | 317° |
| 2026-04-26 21:34 | 39.26335 | 21.30657 | 38130 ft | 440 kts | 317° |
| 2026-04-26 21:34 | 39.30987 | 21.25523 | 38132 ft | 440 kts | 317° |
| 2026-04-26 21:35 | 39.35637 | 21.20383 | 38134 ft | 440 kts | 317° |
| 2026-04-26 21:35 | 39.40279 | 21.15242 | 38137 ft | 439 kts | 317° |
| 2026-04-26 21:36 | 39.44167 | 21.10929 | 38133 ft | 439 kts | 317° |
| 2026-04-26 21:36 | 39.49554 | 21.04943 | 38136 ft | 439 kts | 317° |
| 2026-04-26 21:37 | 39.54185 | 20.99785 | 38134 ft | 439 kts | 317° |
| 2026-04-26 21:37 | 39.58811 | 20.94625 | 38125 ft | 439 kts | 317° |
| 2026-04-26 21:38 | 39.63431 | 20.89461 | 38131 ft | 438 kts | 317° |
| 2026-04-26 21:38 | 39.68048 | 20.84294 | 38130 ft | 438 kts | 317° |
| 2026-04-26 21:39 | 39.73148 | 20.80036 | 38126 ft | 442 kts | 333° |
| 2026-04-26 21:39 | 39.78783 | 20.76715 | 38125 ft | 442 kts | 333° |
| 2026-04-26 21:40 | 39.84351 | 20.73427 | 38128 ft | 442 kts | 333° |
| 2026-04-26 21:40 | 39.89940 | 20.70059 | 38149 ft | 443 kts | 333° |
| 2026-04-26 21:41 | 39.95524 | 20.66668 | 38128 ft | 443 kts | 333° |
| 2026-04-26 21:41 | 40.01106 | 20.63274 | 38127 ft | 442 kts | 333° |
| 2026-04-26 21:42 | 40.06674 | 20.59874 | 38135 ft | 441 kts | 331° |
| 2026-04-26 21:42 | 40.11865 | 20.55672 | 38139 ft | 439 kts | 323° |
| 2026-04-26 21:43 | 40.16874 | 20.51101 | 38136 ft | 439 kts | 323° |
| 2026-04-26 21:43 | 40.21890 | 20.46529 | 38130 ft | 439 kts | 323° |
| 2026-04-26 21:44 | 40.26926 | 20.41988 | 38140 ft | 439 kts | 324° |
| 2026-04-26 21:44 | 40.31967 | 20.37461 | 38149 ft | 439 kts | 324° |
| 2026-04-26 21:45 | 40.37011 | 20.32931 | 38140 ft | 440 kts | 324° |
| 2026-04-26 21:45 | 40.42023 | 20.28423 | 38138 ft | 440 kts | 323° |
| 2026-04-26 21:46 | 40.47066 | 20.23876 | 38143 ft | 439 kts | 323° |
| 2026-04-26 21:46 | 40.52097 | 20.19332 | 38134 ft | 439 kts | 323° |
| 2026-04-26 21:47 | 40.57127 | 20.14779 | 38139 ft | 439 kts | 323° |
| 2026-04-26 21:47 | 40.62154 | 20.10220 | 38141 ft | 439 kts | 323° |
| 2026-04-26 21:48 | 40.67174 | 20.05660 | 38129 ft | 438 kts | 323° |
| 2026-04-26 21:48 | 40.72183 | 20.01102 | 38128 ft | 437 kts | 323° |
| 2026-04-26 21:49 | 40.77182 | 19.96543 | 38127 ft | 437 kts | 323° |
| 2026-04-26 21:49 | 40.82172 | 19.91985 | 38127 ft | 436 kts | 323° |
| 2026-04-26 21:50 | 40.86316 | 19.88192 | 38120 ft | 436 kts | 323° |
| 2026-04-26 21:50 | 40.92142 | 19.82851 | 38122 ft | 436 kts | 323° |
| 2026-04-26 21:51 | 40.97118 | 19.78280 | 38117 ft | 435 kts | 323° |
| 2026-04-26 21:51 | 41.02094 | 19.73700 | 38125 ft | 435 kts | 323° |
| 2026-04-26 21:52 | 41.07062 | 19.69119 | 38124 ft | 435 kts | 323° |
| 2026-04-26 21:52 | 41.11196 | 19.65301 | 38124 ft | 436 kts | 323° |
| 2026-04-26 21:53 | 41.16974 | 19.59954 | 38122 ft | 436 kts | 323° |
| 2026-04-26 21:53 | 41.21948 | 19.55341 | 38120 ft | 436 kts | 323° |
| 2026-04-26 21:54 | 41.26921 | 19.50720 | 38123 ft | 437 kts | 323° |
| 2026-04-26 21:54 | 41.31091 | 19.46840 | 38123 ft | 437 kts | 323° |
| 2026-04-26 21:55 | 41.36036 | 19.42229 | 38127 ft | 437 kts | 323° |
| 2026-04-26 21:55 | 41.41015 | 19.37578 | 38120 ft | 437 kts | 323° |
| 2026-04-26 21:56 | 41.45998 | 19.32915 | 38119 ft | 438 kts | 323° |
| 2026-04-26 21:56 | 41.50984 | 19.28240 | 38120 ft | 438 kts | 323° |
| 2026-04-26 21:57 | 41.55973 | 19.23553 | 38123 ft | 439 kts | 323° |
| 2026-04-26 21:57 | 41.60960 | 19.18859 | 38131 ft | 439 kts | 323° |
| 2026-04-26 21:58 | 41.65949 | 19.14154 | 38121 ft | 439 kts | 323° |
| 2026-04-26 21:58 | 41.70936 | 19.09442 | 38121 ft | 439 kts | 323° |
| 2026-04-26 21:59 | 41.75920 | 19.04723 | 38123 ft | 439 kts | 323° |
| 2026-04-26 21:59 | 41.80903 | 18.99996 | 38122 ft | 439 kts | 323° |
| 2026-04-26 22:00 | 41.85885 | 18.95261 | 38130 ft | 439 kts | 323° |
| 2026-04-26 22:00 | 41.90867 | 18.90517 | 38124 ft | 439 kts | 323° |
| 2026-04-26 22:01 | 41.95841 | 18.85771 | 38123 ft | 439 kts | 323° |
| 2026-04-26 22:01 | 42.00819 | 18.81012 | 38120 ft | 439 kts | 323° |
| 2026-04-26 22:02 | 42.05790 | 18.76249 | 38119 ft | 439 kts | 323° |
| 2026-04-26 22:02 | 42.10727 | 18.71512 | 38123 ft | 439 kts | 323° |
| 2026-04-26 22:03 | 42.15696 | 18.66733 | 38108 ft | 439 kts | 323° |
| 2026-04-26 22:03 | 42.20664 | 18.61946 | 38111 ft | 439 kts | 322° |
| 2026-04-26 22:04 | 42.25624 | 18.57158 | 38102 ft | 438 kts | 322° |
| 2026-04-26 22:04 | 42.30583 | 18.52360 | 38102 ft | 438 kts | 322° |
| 2026-04-26 22:05 | 42.35537 | 18.47558 | 38104 ft | 438 kts | 322° |
| 2026-04-26 22:05 | 42.40494 | 18.42744 | 38101 ft | 438 kts | 322° |
| 2026-04-26 22:06 | 42.45444 | 18.37927 | 38104 ft | 438 kts | 322° |
| 2026-04-26 22:06 | 42.50390 | 18.33104 | 38104 ft | 438 kts | 322° |
| 2026-04-26 22:07 | 42.55335 | 18.28273 | 38118 ft | 438 kts | 322° |
| 2026-04-26 22:07 | 42.60283 | 18.23429 | 38110 ft | 439 kts | 322° |
| 2026-04-26 22:08 | 42.65232 | 18.18574 | 38103 ft | 439 kts | 322° |
| 2026-04-26 22:08 | 42.70182 | 18.13709 | 38102 ft | 439 kts | 322° |
| 2026-04-26 22:09 | 42.75125 | 18.08841 | 38115 ft | 439 kts | 322° |
| 2026-04-26 22:09 | 42.80064 | 18.03967 | 38136 ft | 438 kts | 322° |
| 2026-04-26 22:10 | 42.84999 | 17.99087 | 38122 ft | 438 kts | 322° |
| 2026-04-26 22:10 | 42.89925 | 17.94205 | 38124 ft | 438 kts | 322° |
| 2026-04-26 22:11 | 42.94819 | 17.89347 | 38126 ft | 438 kts | 322° |
| 2026-04-26 22:11 | 42.99737 | 17.84454 | 38126 ft | 437 kts | 322° |
| 2026-04-26 22:12 | 43.04655 | 17.79552 | 38128 ft | 437 kts | 322° |
| 2026-04-26 22:12 | 43.09566 | 17.74646 | 38142 ft | 437 kts | 322° |
| 2026-04-26 22:13 | 43.14476 | 17.69731 | 38128 ft | 437 kts | 322° |
| 2026-04-26 22:13 | 43.19382 | 17.64810 | 38137 ft | 437 kts | 321° |
| 2026-04-26 22:14 | 43.24290 | 17.59877 | 38134 ft | 437 kts | 321° |
| 2026-04-26 22:14 | 43.29189 | 17.54944 | 38145 ft | 437 kts | 321° |
| 2026-04-26 22:15 | 43.34091 | 17.49997 | 38154 ft | 437 kts | 321° |
| 2026-04-26 22:15 | 43.38985 | 17.45049 | 38157 ft | 437 kts | 321° |
| 2026-04-26 22:16 | 43.43880 | 17.40088 | 38176 ft | 437 kts | 321° |
| 2026-04-26 22:16 | 43.48772 | 17.35121 | 38171 ft | 437 kts | 321° |
| 2026-04-26 22:17 | 43.53665 | 17.30143 | 38180 ft | 437 kts | 321° |
| 2026-04-26 22:17 | 43.58557 | 17.25155 | 38179 ft | 437 kts | 321° |
| 2026-04-26 22:18 | 43.63406 | 17.20202 | 38186 ft | 437 kts | 321° |
| 2026-04-26 22:18 | 43.68290 | 17.15201 | 38183 ft | 437 kts | 321° |
| 2026-04-26 22:19 | 43.73170 | 17.10195 | 38195 ft | 437 kts | 321° |
| 2026-04-26 22:19 | 43.78050 | 17.05178 | 38179 ft | 437 kts | 320° |
| 2026-04-26 22:20 | 43.82140 | 17.00965 | 38198 ft | 437 kts | 320° |
| 2026-04-26 22:20 | 43.87810 | 16.95113 | 38183 ft | 438 kts | 320° |
| 2026-04-26 22:21 | 43.92689 | 16.90066 | 38198 ft | 438 kts | 320° |
| 2026-04-26 22:21 | 43.97565 | 16.85012 | 38207 ft | 437 kts | 320° |
| 2026-04-26 22:22 | 44.02434 | 16.79954 | 38201 ft | 437 kts | 320° |
| 2026-04-26 22:22 | 44.07296 | 16.74892 | 38200 ft | 436 kts | 320° |
| 2026-04-26 22:23 | 44.12150 | 16.69827 | 38198 ft | 436 kts | 320° |
| 2026-04-26 22:23 | 44.17001 | 16.64757 | 38212 ft | 436 kts | 320° |
| 2026-04-26 22:24 | 44.21846 | 16.59681 | 38197 ft | 436 kts | 320° |
| 2026-04-26 22:24 | 44.26693 | 16.54593 | 38197 ft | 436 kts | 320° |
| 2026-04-26 22:25 | 44.31534 | 16.49499 | 38197 ft | 436 kts | 320° |
| 2026-04-26 22:25 | 44.36372 | 16.44399 | 38208 ft | 436 kts | 320° |
| 2026-04-26 22:26 | 44.41213 | 16.39284 | 38205 ft | 436 kts | 320° |
| 2026-04-26 22:26 | 44.46053 | 16.34160 | 38208 ft | 436 kts | 320° |
| 2026-04-26 22:27 | 44.50855 | 16.29065 | 38203 ft | 436 kts | 320° |
| 2026-04-26 22:27 | 44.55689 | 16.23926 | 38204 ft | 436 kts | 320° |
| 2026-04-26 22:28 | 44.60511 | 16.18788 | 38203 ft | 435 kts | 320° |
| 2026-04-26 22:28 | 44.65330 | 16.13642 | 38218 ft | 435 kts | 319° |
| 2026-04-26 22:29 | 44.70146 | 16.08488 | 38211 ft | 435 kts | 320° |
| 2026-04-26 22:29 | 44.74959 | 16.03326 | 38213 ft | 435 kts | 320° |
| 2026-04-26 22:30 | 44.79768 | 15.98157 | 38233 ft | 435 kts | 319° |
| 2026-04-26 22:30 | 44.84576 | 15.92979 | 38225 ft | 435 kts | 319° |
| 2026-04-26 22:31 | 44.89382 | 15.87792 | 38235 ft | 435 kts | 319° |
| 2026-04-26 22:31 | 44.94183 | 15.82598 | 38242 ft | 435 kts | 320° |
| 2026-04-26 22:32 | 44.98979 | 15.77399 | 38244 ft | 435 kts | 319° |
| 2026-04-26 22:32 | 45.03772 | 15.72192 | 38244 ft | 434 kts | 319° |
| 2026-04-26 22:33 | 45.10949 | 15.64373 | 38256 ft | 434 kts | 319° |
| 2026-04-26 22:34 | 45.15728 | 15.59154 | 38248 ft | 434 kts | 319° |
| 2026-04-26 22:34 | 45.20503 | 15.53927 | 38255 ft | 433 kts | 320° |
| 2026-04-26 22:35 | 45.25233 | 15.48738 | 38241 ft | 432 kts | 320° |
| 2026-04-26 22:35 | 45.29978 | 15.43521 | 38252 ft | 431 kts | 320° |
| 2026-04-26 22:36 | 45.34713 | 15.38304 | 38255 ft | 430 kts | 320° |
| 2026-04-26 22:36 | 45.39440 | 15.33084 | 38250 ft | 430 kts | 319° |
| 2026-04-26 22:37 | 45.44160 | 15.27860 | 38247 ft | 429 kts | 319° |
| 2026-04-26 22:37 | 45.48871 | 15.22636 | 38244 ft | 429 kts | 319° |
| 2026-04-26 22:38 | 45.53582 | 15.17399 | 38249 ft | 429 kts | 319° |
| 2026-04-26 22:38 | 45.58286 | 15.12159 | 38260 ft | 429 kts | 319° |
| 2026-04-26 22:39 | 45.62986 | 15.06913 | 38252 ft | 429 kts | 319° |
| 2026-04-26 22:39 | 45.67682 | 15.01659 | 38247 ft | 428 kts | 319° |
| 2026-04-26 22:40 | 45.72369 | 14.96404 | 38252 ft | 428 kts | 319° |
| 2026-04-26 22:40 | 45.77057 | 14.91136 | 38253 ft | 429 kts | 319° |
| 2026-04-26 22:41 | 45.81747 | 14.85854 | 38242 ft | 429 kts | 319° |
| 2026-04-26 22:41 | 45.86436 | 14.80562 | 38244 ft | 429 kts | 319° |
| 2026-04-26 22:42 | 45.91125 | 14.75258 | 38251 ft | 429 kts | 319° |
| 2026-04-26 22:42 | 45.95812 | 14.69943 | 38246 ft | 430 kts | 319° |
| 2026-04-26 22:43 | 46.00512 | 14.64604 | 38249 ft | 431 kts | 319° |
| 2026-04-26 22:43 | 46.04419 | 14.60155 | 38269 ft | 432 kts | 319° |
| 2026-04-26 22:44 | 46.09132 | 14.54778 | 38266 ft | 432 kts | 319° |
| 2026-04-26 22:44 | 46.13845 | 14.49389 | 38269 ft | 433 kts | 319° |
| 2026-04-26 22:45 | 46.18559 | 14.43985 | 38275 ft | 433 kts | 319° |
| 2026-04-26 22:45 | 46.23268 | 14.38578 | 38262 ft | 432 kts | 319° |
| 2026-04-26 22:46 | 46.27692 | 14.32783 | 38276 ft | 428 kts | 308° |
| 2026-04-26 22:46 | 46.31443 | 14.26111 | 38264 ft | 427 kts | 307° |
| 2026-04-26 22:47 | 46.35165 | 14.19431 | 38242 ft | 426 kts | 307° |
| 2026-04-26 22:47 | 46.38901 | 14.12765 | 38232 ft | 426 kts | 307° |
| 2026-04-26 22:48 | 46.42640 | 14.06110 | 38211 ft | 426 kts | 308° |
| 2026-04-26 22:48 | 46.46357 | 13.99490 | 38210 ft | 426 kts | 308° |
| 2026-04-26 22:49 | 46.50090 | 13.92828 | 38189 ft | 425 kts | 307° |
| 2026-04-26 22:49 | 46.53812 | 13.86166 | 38200 ft | 424 kts | 307° |
| 2026-04-26 22:50 | 46.57534 | 13.79490 | 38181 ft | 425 kts | 307° |
| 2026-04-26 22:50 | 46.61245 | 13.72815 | 38186 ft | 424 kts | 307° |
| 2026-04-26 22:51 | 46.64953 | 13.66131 | 38184 ft | 424 kts | 307° |
| 2026-04-26 22:51 | 46.68662 | 13.59429 | 38184 ft | 425 kts | 307° |
| 2026-04-26 22:52 | 46.72373 | 13.52706 | 38171 ft | 426 kts | 307° |
| 2026-04-26 22:52 | 46.76087 | 13.45965 | 38164 ft | 426 kts | 308° |
| 2026-04-26 22:53 | 46.79798 | 13.39206 | 38166 ft | 427 kts | 308° |
| 2026-04-26 22:53 | 46.83519 | 13.32414 | 38175 ft | 429 kts | 307° |
| 2026-04-26 22:54 | 46.87244 | 13.25599 | 38171 ft | 429 kts | 307° |
| 2026-04-26 22:54 | 46.90932 | 13.18837 | 38165 ft | 428 kts | 307° |
| 2026-04-26 22:55 | 46.94639 | 13.12023 | 38153 ft | 429 kts | 308° |
| 2026-04-26 22:55 | 46.98353 | 13.05184 | 38176 ft | 430 kts | 308° |
| 2026-04-26 22:56 | 47.02078 | 12.98296 | 38166 ft | 432 kts | 308° |
| 2026-04-26 22:56 | 47.05810 | 12.91383 | 38167 ft | 433 kts | 307° |
| 2026-04-26 22:57 | 47.09543 | 12.84449 | 38187 ft | 433 kts | 308° |
| 2026-04-26 22:57 | 47.13270 | 12.77511 | 38158 ft | 433 kts | 308° |
| 2026-04-26 22:58 | 47.16965 | 12.70614 | 38178 ft | 429 kts | 307° |
| 2026-04-26 22:58 | 47.20665 | 12.63694 | 38174 ft | 431 kts | 307° |
| 2026-04-26 22:59 | 47.24371 | 12.56743 | 38180 ft | 432 kts | 307° |
| 2026-04-26 22:59 | 47.28077 | 12.49773 | 38176 ft | 432 kts | 307° |
| 2026-04-26 23:00 | 47.31778 | 12.42795 | 38187 ft | 432 kts | 307° |
| 2026-04-26 23:00 | 47.35445 | 12.35863 | 38204 ft | 432 kts | 307° |
| 2026-04-26 23:01 | 47.39134 | 12.28874 | 38190 ft | 432 kts | 307° |
| 2026-04-26 23:01 | 47.42817 | 12.21877 | 38202 ft | 431 kts | 307° |
| 2026-04-26 23:02 | 47.46494 | 12.14872 | 38202 ft | 431 kts | 307° |
| 2026-04-26 23:02 | 47.50167 | 12.07859 | 38201 ft | 431 kts | 307° |
| 2026-04-26 23:03 | 47.53829 | 12.00849 | 38201 ft | 430 kts | 307° |
| 2026-04-26 23:03 | 47.57435 | 11.93771 | 38216 ft | 430 kts | 306° |
| 2026-04-26 23:04 | 47.60999 | 11.86647 | 38226 ft | 431 kts | 306° |
| 2026-04-26 23:04 | 47.64567 | 11.79508 | 38209 ft | 431 kts | 306° |
| 2026-04-26 23:05 | 47.68134 | 11.72369 | 38216 ft | 431 kts | 306° |
| 2026-04-26 23:05 | 47.71696 | 11.65230 | 38239 ft | 430 kts | 306° |
| 2026-04-26 23:06 | 47.75252 | 11.58084 | 38242 ft | 430 kts | 306° |
| 2026-04-26 23:06 | 47.78801 | 11.50936 | 38245 ft | 430 kts | 306° |
| 2026-04-26 23:07 | 47.82344 | 11.43780 | 38239 ft | 429 kts | 307° |
| 2026-04-26 23:07 | 47.85878 | 11.36622 | 38239 ft | 429 kts | 307° |
| 2026-04-26 23:08 | 47.89405 | 11.29460 | 38247 ft | 429 kts | 307° |
| 2026-04-26 23:08 | 47.92929 | 11.22287 | 38238 ft | 428 kts | 307° |
| 2026-04-26 23:09 | 47.96443 | 11.15114 | 38241 ft | 428 kts | 307° |
| 2026-04-26 23:09 | 47.99927 | 11.07984 | 38220 ft | 428 kts | 307° |
| 2026-04-26 23:10 | 48.03426 | 11.00806 | 38240 ft | 427 kts | 307° |
| 2026-04-26 23:10 | 48.06916 | 10.93624 | 38240 ft | 427 kts | 307° |
| 2026-04-26 23:11 | 48.10405 | 10.86427 | 38238 ft | 427 kts | 307° |
| 2026-04-26 23:11 | 48.13887 | 10.79227 | 38239 ft | 427 kts | 307° |
| 2026-04-26 23:12 | 48.17362 | 10.72020 | 38228 ft | 427 kts | 307° |
| 2026-04-26 23:12 | 48.20831 | 10.64806 | 38241 ft | 426 kts | 307° |
| 2026-04-26 23:13 | 48.24295 | 10.57586 | 38240 ft | 426 kts | 307° |
| 2026-04-26 23:13 | 48.27752 | 10.50359 | 38243 ft | 426 kts | 307° |
| 2026-04-26 23:14 | 48.31206 | 10.43120 | 38243 ft | 426 kts | 307° |
| 2026-04-26 23:14 | 48.34629 | 10.35927 | 38227 ft | 426 kts | 307° |
| 2026-04-26 23:15 | 48.38068 | 10.28681 | 38247 ft | 425 kts | 307° |
| 2026-04-26 23:15 | 48.41499 | 10.21432 | 38247 ft | 425 kts | 307° |
| 2026-04-26 23:16 | 48.44922 | 10.14180 | 38245 ft | 425 kts | 307° |
| 2026-04-26 23:16 | 48.48342 | 10.06916 | 38252 ft | 425 kts | 307° |
| 2026-04-26 23:17 | 48.51756 | 9.99645 | 38247 ft | 425 kts | 307° |
| 2026-04-26 23:17 | 48.55165 | 9.92364 | 38242 ft | 425 kts | 307° |
| 2026-04-26 23:18 | 48.58568 | 9.85076 | 38243 ft | 425 kts | 307° |
| 2026-04-26 23:18 | 48.61974 | 9.77762 | 38245 ft | 426 kts | 307° |
| 2026-04-26 23:19 | 48.65379 | 9.70435 | 38243 ft | 427 kts | 307° |
| 2026-04-26 23:19 | 48.68816 | 9.63115 | 38245 ft | 427 kts | 308° |
| 2026-04-26 23:20 | 48.72395 | 9.55959 | 38235 ft | 426 kts | 309° |
| 2026-04-26 23:20 | 48.75988 | 9.48836 | 38243 ft | 425 kts | 309° |
| 2026-04-26 23:21 | 48.79560 | 9.41692 | 38245 ft | 425 kts | 308° |
| 2026-04-26 23:21 | 48.83113 | 9.34530 | 38237 ft | 425 kts | 308° |
| 2026-04-26 23:22 | 48.86658 | 9.27355 | 38243 ft | 425 kts | 308° |
| 2026-04-26 23:22 | 48.90196 | 9.20173 | 38232 ft | 424 kts | 308° |
| 2026-04-26 23:23 | 48.93724 | 9.12990 | 38238 ft | 423 kts | 308° |
| 2026-04-26 23:23 | 48.97241 | 9.05813 | 38245 ft | 423 kts | 308° |
| 2026-04-26 23:24 | 49.00752 | 8.98629 | 38238 ft | 422 kts | 308° |
| 2026-04-26 23:24 | 49.04254 | 8.91444 | 38242 ft | 422 kts | 308° |
| 2026-04-26 23:25 | 49.07749 | 8.84255 | 38238 ft | 422 kts | 308° |
| 2026-04-26 23:25 | 49.11240 | 8.77055 | 38239 ft | 422 kts | 307° |
| 2026-04-26 23:26 | 49.14702 | 8.69894 | 38239 ft | 422 kts | 307° |
| 2026-04-26 23:26 | 49.18191 | 8.62659 | 38254 ft | 423 kts | 307° |
| 2026-04-26 23:27 | 49.21681 | 8.55402 | 38260 ft | 424 kts | 307° |
| 2026-04-26 23:27 | 49.25174 | 8.48118 | 38260 ft | 425 kts | 307° |
| 2026-04-26 23:28 | 49.28670 | 8.40809 | 38238 ft | 426 kts | 307° |
| 2026-04-26 23:28 | 49.32165 | 8.33482 | 38248 ft | 426 kts | 307° |
| 2026-04-26 23:29 | 49.35657 | 8.26141 | 38246 ft | 426 kts | 307° |
| 2026-04-26 23:29 | 49.39145 | 8.18789 | 38244 ft | 426 kts | 307° |
| 2026-04-26 23:30 | 49.42626 | 8.11429 | 38251 ft | 426 kts | 307° |
| 2026-04-26 23:30 | 49.46103 | 8.04059 | 38243 ft | 426 kts | 307° |
| 2026-04-26 23:31 | 49.49567 | 7.96696 | 38241 ft | 424 kts | 306° |
| 2026-04-26 23:31 | 49.53018 | 7.89340 | 38240 ft | 423 kts | 306° |
| 2026-04-26 23:32 | 49.56453 | 7.81999 | 38240 ft | 422 kts | 306° |
| 2026-04-26 23:32 | 49.59879 | 7.74655 | 38237 ft | 422 kts | 306° |
| 2026-04-26 23:33 | 49.63274 | 7.67358 | 38243 ft | 421 kts | 306° |
| 2026-04-26 23:33 | 49.66684 | 7.60011 | 38241 ft | 421 kts | 306° |
| 2026-04-26 23:34 | 49.70087 | 7.52655 | 38248 ft | 421 kts | 306° |
| 2026-04-26 23:34 | 49.73490 | 7.45281 | 38261 ft | 422 kts | 306° |
| 2026-04-26 23:35 | 49.76322 | 7.39129 | 38251 ft | 423 kts | 306° |
| 2026-04-26 23:35 | 49.79727 | 7.31711 | 38251 ft | 424 kts | 306° |
| 2026-04-26 23:36 | 49.83142 | 7.24252 | 38228 ft | 425 kts | 305° |
| 2026-04-26 23:36 | 49.86556 | 7.16774 | 38244 ft | 425 kts | 305° |
| 2026-04-26 23:37 | 49.89967 | 7.09281 | 38233 ft | 426 kts | 305° |
| 2026-04-26 23:37 | 49.93379 | 7.01765 | 38257 ft | 426 kts | 305° |
| 2026-04-26 23:38 | 49.96783 | 6.94244 | 38243 ft | 426 kts | 305° |
| 2026-04-26 23:38 | 50.00181 | 6.86715 | 38264 ft | 425 kts | 305° |
| 2026-04-26 23:39 | 50.03571 | 6.79183 | 38248 ft | 424 kts | 305° |
| 2026-04-26 23:39 | 50.06942 | 6.71672 | 38246 ft | 423 kts | 304° |
| 2026-04-26 23:40 | 50.10301 | 6.64165 | 38243 ft | 422 kts | 305° |
| 2026-04-26 23:40 | 50.13647 | 6.56666 | 38244 ft | 421 kts | 304° |
| 2026-04-26 23:41 | 50.16986 | 6.49165 | 38249 ft | 421 kts | 304° |
| 2026-04-26 23:41 | 50.20324 | 6.41673 | 38234 ft | 420 kts | 304° |
| 2026-04-26 23:42 | 50.23688 | 6.34207 | 38247 ft | 420 kts | 304° |
| 2026-04-26 23:42 | 50.28732 | 6.22991 | 38269 ft | 421 kts | 304° |
| 2026-04-26 23:43 | 50.32066 | 6.15537 | 38263 ft | 421 kts | 304° |
| 2026-04-26 23:43 | 50.35418 | 6.08019 | 38267 ft | 422 kts | 304° |
| 2026-04-26 23:44 | 50.38772 | 6.00474 | 38261 ft | 422 kts | 304° |
| 2026-04-26 23:44 | 50.42122 | 5.92915 | 38270 ft | 422 kts | 304° |
| 2026-04-26 23:45 | 50.45470 | 5.85339 | 38273 ft | 423 kts | 304° |
| 2026-04-26 23:45 | 50.48815 | 5.77749 | 38276 ft | 423 kts | 304° |
| 2026-04-26 23:46 | 50.52160 | 5.70137 | 38289 ft | 423 kts | 304° |
| 2026-04-26 23:46 | 50.55500 | 5.62513 | 38277 ft | 423 kts | 304° |
| 2026-04-26 23:47 | 50.58834 | 5.54882 | 38274 ft | 423 kts | 303° |
| 2026-04-26 23:47 | 50.62120 | 5.47340 | 38069 ft | 408 kts | 303° |
| 2026-04-26 23:48 | 50.63712 | 5.43679 | 37616 ft | 403 kts | 303° |
| 2026-04-26 23:48 | 50.65289 | 5.40045 | 37036 ft | 402 kts | 303° |
| 2026-04-26 23:48 | 50.66869 | 5.36399 | 36370 ft | 403 kts | 303° |
| 2026-04-26 23:48 | 50.68444 | 5.32758 | 35873 ft | 401 kts | 303° |
| 2026-04-26 23:49 | 50.70007 | 5.29142 | 35491 ft | 396 kts | 303° |
| 2026-04-26 23:49 | 50.71547 | 5.25575 | 35102 ft | 392 kts | 303° |
| 2026-04-26 23:49 | 50.73069 | 5.22045 | 34661 ft | 386 kts | 303° |
| 2026-04-26 23:49 | 50.74567 | 5.18564 | 34051 ft | 382 kts | 303° |
| 2026-04-26 23:50 | 50.76056 | 5.15103 | 33287 ft | 380 kts | 303° |
| 2026-04-26 23:50 | 50.77536 | 5.11656 | 32573 ft | 379 kts | 303° |
| 2026-04-26 23:50 | 50.79003 | 5.08235 | 31905 ft | 376 kts | 303° |
| 2026-04-26 23:50 | 50.80363 | 5.04732 | 31279 ft | 372 kts | 296° |
| 2026-04-26 23:51 | 50.81344 | 5.00969 | 30668 ft | 369 kts | 287° |
| 2026-04-26 23:51 | 50.82076 | 4.97105 | 30034 ft | 366 kts | 286° |
| 2026-04-26 23:51 | 50.82787 | 4.93267 | 29370 ft | 362 kts | 286° |
| 2026-04-26 23:51 | 50.83483 | 4.89522 | 28729 ft | 358 kts | 286° |
| 2026-04-26 23:52 | 50.84187 | 4.85765 | 28089 ft | 355 kts | 286° |
| 2026-04-26 23:52 | 50.84888 | 4.82036 | 27459 ft | 352 kts | 286° |
| 2026-04-26 23:52 | 50.85585 | 4.78346 | 26853 ft | 349 kts | 286° |
| 2026-04-26 23:52 | 50.86276 | 4.74684 | 26255 ft | 346 kts | 286° |
| 2026-04-26 23:53 | 50.86961 | 4.71055 | 25673 ft | 343 kts | 286° |
| 2026-04-26 23:53 | 50.87639 | 4.67457 | 25119 ft | 340 kts | 286° |
| 2026-04-26 23:53 | 50.88312 | 4.63887 | 24579 ft | 337 kts | 286° |
| 2026-04-26 23:53 | 50.88975 | 4.60351 | 24057 ft | 334 kts | 286° |
| 2026-04-26 23:54 | 50.89634 | 4.56835 | 23446 ft | 332 kts | 286° |
| 2026-04-26 23:54 | 50.90404 | 4.53406 | 22808 ft | 330 kts | 294° |
| 2026-04-26 23:54 | 50.91517 | 4.50238 | 22197 ft | 328 kts | 300° |
| 2026-04-26 23:54 | 50.92718 | 4.47173 | 21599 ft | 326 kts | 300° |
| 2026-04-26 23:55 | 50.93918 | 4.44133 | 21010 ft | 324 kts | 300° |
| 2026-04-26 23:55 | 50.95108 | 4.41107 | 20435 ft | 323 kts | 300° |
| 2026-04-26 23:55 | 50.96287 | 4.38093 | 19878 ft | 321 kts | 300° |
| 2026-04-26 23:55 | 50.97456 | 4.35088 | 19334 ft | 319 kts | 300° |
| 2026-04-26 23:56 | 50.98608 | 4.32116 | 18914 ft | 314 kts | 300° |
| 2026-04-26 23:56 | 50.99738 | 4.29195 | 18537 ft | 307 kts | 300° |
| 2026-04-26 23:56 | 51.00843 | 4.26330 | 18136 ft | 301 kts | 300° |
| 2026-04-26 23:56 | 51.01923 | 4.23528 | 17778 ft | 294 kts | 300° |
| 2026-04-26 23:57 | 51.02980 | 4.20782 | 17441 ft | 290 kts | 300° |
| 2026-04-26 23:57 | 51.04024 | 4.18063 | 17114 ft | 287 kts | 300° |
| 2026-04-26 23:57 | 51.05068 | 4.15341 | 16798 ft | 291 kts | 300° |
| 2026-04-26 23:57 | 51.06143 | 4.12538 | 16481 ft | 303 kts | 300° |
| 2026-04-26 23:58 | 51.07247 | 4.09656 | 16122 ft | 304 kts | 300° |
| 2026-04-26 23:58 | 51.08334 | 4.06817 | 15765 ft | 297 kts | 300° |
| 2026-04-26 23:58 | 51.09433 | 4.04085 | 15420 ft | 290 kts | 307° |
| 2026-04-26 23:58 | 51.10867 | 4.01882 | 15126 ft | 284 kts | 321° |
| 2026-04-26 23:59 | 51.12418 | 4.00053 | 14824 ft | 280 kts | 322° |
| 2026-04-26 23:59 | 51.14017 | 3.98209 | 14517 ft | 280 kts | 322° |
| 2026-04-26 23:59 | 51.15599 | 3.96370 | 14216 ft | 286 kts | 322° |
| 2026-04-26 23:59 | 51.17210 | 3.94476 | 13874 ft | 296 kts | 322° |
| 2026-04-27 00:00 | 51.18871 | 3.92508 | 13495 ft | 298 kts | 322° |
| 2026-04-27 00:00 | 51.20529 | 3.90540 | 13127 ft | 296 kts | 322° |
| 2026-04-27 00:00 | 51.22253 | 3.88769 | 12756 ft | 296 kts | 336° |
| 2026-04-27 00:00 | 51.24268 | 3.88219 | 12458 ft | 296 kts | 1° |
| 2026-04-27 00:01 | 51.26263 | 3.88928 | 12142 ft | 296 kts | 20° |
| 2026-04-27 00:01 | 51.28141 | 3.90244 | 11826 ft | 294 kts | 23° |
| 2026-04-27 00:01 | 51.29991 | 3.91615 | 11500 ft | 292 kts | 24° |
| 2026-04-27 00:01 | 51.31829 | 3.92991 | 11172 ft | 291 kts | 24° |
| 2026-04-27 00:02 | 51.33659 | 3.94358 | 10790 ft | 291 kts | 23° |
| 2026-04-27 00:02 | 51.35524 | 3.95743 | 10283 ft | 297 kts | 23° |
| 2026-04-27 00:02 | 51.37379 | 3.97116 | 10080 ft | 290 kts | 24° |
| 2026-04-27 00:02 | 51.39188 | 3.98454 | 9842 ft | 284 kts | 23° |
| 2026-04-27 00:03 | 51.40979 | 3.99775 | 9527 ft | 282 kts | 23° |
| 2026-04-27 00:03 | 51.42752 | 4.01083 | 9212 ft | 280 kts | 23° |
| 2026-04-27 00:03 | 51.44511 | 4.02379 | 8915 ft | 277 kts | 23° |
| 2026-04-27 00:03 | 51.46253 | 4.03663 | 8621 ft | 275 kts | 23° |
| 2026-04-27 00:04 | 51.47986 | 4.04940 | 8327 ft | 272 kts | 24° |
| 2026-04-27 00:04 | 51.49702 | 4.06207 | 8038 ft | 270 kts | 24° |
| 2026-04-27 00:04 | 51.51405 | 4.07464 | 7753 ft | 268 kts | 24° |
| 2026-04-27 00:04 | 51.53095 | 4.08713 | 7465 ft | 267 kts | 25° |
| 2026-04-27 00:05 | 51.54776 | 4.09956 | 7177 ft | 265 kts | 25° |
| 2026-04-27 00:05 | 51.56445 | 4.11192 | 6897 ft | 263 kts | 25° |
| 2026-04-27 00:05 | 51.58105 | 4.12421 | 6594 ft | 262 kts | 25° |
| 2026-04-27 00:05 | 51.59754 | 4.13644 | 6308 ft | 260 kts | 25° |
| 2026-04-27 00:06 | 51.61394 | 4.14861 | 6024 ft | 258 kts | 25° |
| 2026-04-27 00:06 | 51.63020 | 4.16069 | 5738 ft | 257 kts | 25° |
| 2026-04-27 00:06 | 51.64635 | 4.17270 | 5462 ft | 255 kts | 25° |
| 2026-04-27 00:06 | 51.66237 | 4.18461 | 5187 ft | 253 kts | 25° |
| 2026-04-27 00:07 | 51.67826 | 4.19644 | 4909 ft | 251 kts | 25° |
| 2026-04-27 00:07 | 51.69402 | 4.20817 | 4634 ft | 249 kts | 25° |
| 2026-04-27 00:07 | 51.70945 | 4.21967 | 4528 ft | 240 kts | 25° |
| 2026-04-27 00:07 | 51.72435 | 4.23079 | 4425 ft | 232 kts | 25° |
| 2026-04-27 00:08 | 51.73930 | 4.23896 | 4296 ft | 225 kts | 4° |
| 2026-04-27 00:08 | 51.75441 | 4.23421 | 4111 ft | 221 kts | 340° |
| 2026-04-27 00:08 | 51.76834 | 4.22430 | 4004 ft | 215 kts | 336° |
| 2026-04-27 00:08 | 51.78162 | 4.21420 | 3918 ft | 206 kts | 336° |
| 2026-04-27 00:09 | 51.79414 | 4.20466 | 3833 ft | 193 kts | 336° |
| 2026-04-27 00:09 | 51.80657 | 4.19885 | 3690 ft | 184 kts | 5° |
| 2026-04-27 00:09 | 51.81876 | 4.20181 | 3589 ft | 181 kts | 7° |
| 2026-04-27 00:09 | 51.83121 | 4.20416 | 3426 ft | 180 kts | 7° |
| 2026-04-27 00:10 | 51.84378 | 4.20646 | 3236 ft | 183 kts | 7° |
| 2026-04-27 00:10 | 51.85647 | 4.20880 | 3037 ft | 183 kts | 8° |
| 2026-04-27 00:10 | 51.86774 | 4.21714 | 2809 ft | 181 kts | 52° |
| 2026-04-27 00:10 | 51.87443 | 4.23412 | 2671 ft | 180 kts | 57° |
| 2026-04-27 00:11 | 51.88140 | 4.25106 | 2479 ft | 181 kts | 58° |
| 2026-04-27 00:11 | 51.88823 | 4.26800 | 2314 ft | 177 kts | 59° |
| 2026-04-27 00:11 | 51.89480 | 4.28449 | 2164 ft | 173 kts | 59° |
| 2026-04-27 00:11 | 51.90121 | 4.30063 | 1945 ft | 169 kts | 59° |
| 2026-04-27 00:12 | 51.90752 | 4.31647 | 1709 ft | 166 kts | 58° |
| 2026-04-27 00:12 | 51.91355 | 4.33161 | 1499 ft | 154 kts | 58° |
| 2026-04-27 00:12 | 51.91925 | 4.34591 | 1301 ft | 148 kts | 59° |
| 2026-04-27 00:12 | 51.92452 | 4.35918 | 1117 ft | 137 kts | 59° |
| 2026-04-27 00:13 | 51.92957 | 4.37193 | 919 ft | 134 kts | 59° |
| 2026-04-27 00:13 | 51.93462 | 4.38453 | 721 ft | 134 kts | 58° |
| 2026-04-27 00:13 | 51.93972 | 4.39727 | 572 ft | 136 kts | 57° |
| 2026-04-27 00:13 | 51.94492 | 4.41031 | 358 ft | 138 kts | 57° |
| 2026-04-27 00:14 | 51.95015 | 4.42345 | 148 ft | 139 kts | 57° |
| 2026-04-27 00:14 | 51.95528 | 4.43623 | 3 ft | 128 kts | 57° |
| 2026-04-27 00:14 | 51.95917 | 4.44593 | -6 ft | 72 kts | 57° |
| 2026-04-27 00:14 | 51.96095 | 4.45041 | -6 ft | 30 kts | 56° |
| 2026-04-27 00:15 | 51.96158 | 4.45257 | -6 ft | 17 kts | 93° |
| 2026-04-27 00:15 | 51.96115 | 4.45376 | -6 ft | 10 kts | 135° |
| 2026-04-27 00:15 | 51.96029 | 4.45362 | -6 ft | 20 kts | 231° |
| 2026-04-27 00:15 | 51.95931 | 4.45118 | -6 ft | 30 kts | 236° |
| 2026-04-27 00:16 | 51.95807 | 4.44813 | -6 ft | 35 kts | 237° |
| 2026-04-27 00:16 | 51.95665 | 4.44457 | -6 ft | 40 kts | 237° |
| 2026-04-27 00:16 | 51.95527 | 4.44113 | -6 ft | 36 kts | 237° |
| 2026-04-27 00:16 | 51.95393 | 4.43779 | -6 ft | 35 kts | 237° |
| 2026-04-27 00:17 | 51.95300 | 4.43548 | -6 ft | 14 kts | 236° |
| 2026-04-27 00:17 | 51.95221 | 4.43536 | -6 ft | 14 kts | 148° |
| 2026-04-27 00:17 | 51.95137 | 4.43622 | -7 ft | 6 kts | 149° |
| 2026-04-27 00:17 | 51.95097 | 4.43593 | -7 ft | 9 kts | 236° |
| 2026-04-27 00:18 | 51.95055 | 4.43488 | -7 ft | 11 kts | 236° |
| 2026-04-27 00:18 | 51.95037 | 4.43412 | -7 ft | 7 kts | 288° |
| 2026-04-27 00:18 | 51.95061 | 4.43377 | -7 ft | 2 kts | 328° |
| 2026-04-27 00:18 | 51.95068 | 4.43370 | -7 ft | 0 kts | 327° |